sensor_id;sensor_type;location;lat;lon;timestamp;P1;durP1;ratioP1;P2;durP2;ratioP2
44476;SDS011;30180;44.788;10.366;2023-10-08T00:00:06;21.15;;;16.73;;
44476;SDS011;30180;44.788;10.366;2023-10-08T00:02:49;21.33;;;15.85;;
44476;SDS011;30180;44.788;10.366;2023-10-08T00:05:19;22.13;;;16.83;;
44476;SDS011;30180;44.788;10.366;2023-10-08T00:07:50;21.85;;;16.10;;
44476;SDS011;30180;44.788;10.366;2023-10-08T00:10:18;22.95;;;16.88;;
44476;SDS011;30180;44.788;10.366;2023-10-08T00:12:52;21.38;;;16.25;;
44476;SDS011;30180;44.788;10.366;2023-10-08T00:15:22;22.88;;;17.45;;
44476;SDS011;30180;44.788;10.366;2023-10-08T00:17:52;23.50;;;17.40;;
44476;SDS011;30180;44.788;10.366;2023-10-08T00:20:21;22.80;;;17.23;;
44476;SDS011;30180;44.788;10.366;2023-10-08T00:23:05;22.05;;;16.65;;
44476;SDS011;30180;44.788;10.366;2023-10-08T00:25:34;22.83;;;17.20;;
44476;SDS011;30180;44.788;10.366;2023-10-08T00:28:07;21.92;;;15.27;;
44476;SDS011;30180;44.788;10.366;2023-10-08T00:30:39;21.15;;;15.65;;
44476;SDS011;30180;44.788;10.366;2023-10-08T00:33:09;21.67;;;16.40;;
44476;SDS011;30180;44.788;10.366;2023-10-08T00:35:38;21.30;;;16.25;;
44476;SDS011;30180;44.788;10.366;2023-10-08T00:38:09;20.25;;;15.30;;
44476;SDS011;30180;44.788;10.366;2023-10-08T00:40:41;24.05;;;16.65;;
44476;SDS011;30180;44.788;10.366;2023-10-08T00:45:59;22.50;;;16.77;;
44476;SDS011;30180;44.788;10.366;2023-10-08T00:48:28;23.80;;;16.73;;
44476;SDS011;30180;44.788;10.366;2023-10-08T00:51:02;22.50;;;16.70;;
44476;SDS011;30180;44.788;10.366;2023-10-08T00:53:42;21.75;;;16.38;;
44476;SDS011;30180;44.788;10.366;2023-10-08T00:56:12;21.30;;;15.68;;
44476;SDS011;30180;44.788;10.366;2023-10-08T00:58:45;22.15;;;16.05;;
44476;SDS011;30180;44.788;10.366;2023-10-08T01:01:15;21.80;;;17.05;;
44476;SDS011;30180;44.788;10.366;2023-10-08T01:03:46;20.70;;;15.52;;
44476;SDS011;30180;44.788;10.366;2023-10-08T01:06:16;20.17;;;15.70;;
44476;SDS011;30180;44.788;10.366;2023-10-08T01:08:47;21.35;;;16.02;;
44476;SDS011;30180;44.788;10.366;2023-10-08T01:11:20;21.83;;;16.20;;
44476;SDS011;30180;44.788;10.366;2023-10-08T01:13:58;20.58;;;15.88;;
44476;SDS011;30180;44.788;10.366;2023-10-08T01:16:27;19.98;;;16.02;;
44476;SDS011;30180;44.788;10.366;2023-10-08T01:18:56;20.85;;;14.93;;
44476;SDS011;30180;44.788;10.366;2023-10-08T01:21:28;19.52;;;15.48;;
44476;SDS011;30180;44.788;10.366;2023-10-08T01:24:04;23.23;;;17.40;;
44476;SDS011;30180;44.788;10.366;2023-10-08T01:26:33;22.08;;;15.93;;
44476;SDS011;30180;44.788;10.366;2023-10-08T01:29:08;21.00;;;15.05;;
44476;SDS011;30180;44.788;10.366;2023-10-08T01:31:45;20.02;;;15.88;;
44476;SDS011;30180;44.788;10.366;2023-10-08T01:34:15;20.63;;;16.50;;
44476;SDS011;30180;44.788;10.366;2023-10-08T01:36:44;20.10;;;15.35;;
44476;SDS011;30180;44.788;10.366;2023-10-08T01:39:14;23.83;;;17.20;;
44476;SDS011;30180;44.788;10.366;2023-10-08T01:41:43;19.67;;;15.05;;
44476;SDS011;30180;44.788;10.366;2023-10-08T01:44:13;22.20;;;16.20;;
44476;SDS011;30180;44.788;10.366;2023-10-08T01:46:43;23.40;;;16.42;;
44476;SDS011;30180;44.788;10.366;2023-10-08T01:49:11;20.90;;;15.88;;
44476;SDS011;30180;44.788;10.366;2023-10-08T01:54:15;20.40;;;15.77;;
44476;SDS011;30180;44.788;10.366;2023-10-08T01:56:48;19.40;;;14.95;;
44476;SDS011;30180;44.788;10.366;2023-10-08T01:59:16;19.13;;;14.65;;
44476;SDS011;30180;44.788;10.366;2023-10-08T02:01:45;19.90;;;14.52;;
44476;SDS011;30180;44.788;10.366;2023-10-08T02:04:14;18.52;;;14.52;;
44476;SDS011;30180;44.788;10.366;2023-10-08T02:06:44;18.88;;;14.15;;
44476;SDS011;30180;44.788;10.366;2023-10-08T02:09:13;16.98;;;13.38;;
44476;SDS011;30180;44.788;10.366;2023-10-08T02:11:48;20.92;;;15.43;;
44476;SDS011;30180;44.788;10.366;2023-10-08T02:14:17;22.17;;;16.00;;
44476;SDS011;30180;44.788;10.366;2023-10-08T02:16:46;18.05;;;14.05;;
44476;SDS011;30180;44.788;10.366;2023-10-08T02:19:15;19.10;;;14.48;;
44476;SDS011;30180;44.788;10.366;2023-10-08T02:21:54;23.88;;;17.00;;
44476;SDS011;30180;44.788;10.366;2023-10-08T02:24:23;18.38;;;13.80;;
44476;SDS011;30180;44.788;10.366;2023-10-08T02:26:53;21.42;;;15.02;;
44476;SDS011;30180;44.788;10.366;2023-10-08T02:29:25;20.63;;;14.45;;
44476;SDS011;30180;44.788;10.366;2023-10-08T02:31:54;20.00;;;14.07;;
44476;SDS011;30180;44.788;10.366;2023-10-08T02:34:22;19.65;;;15.00;;
44476;SDS011;30180;44.788;10.366;2023-10-08T02:36:50;18.88;;;14.65;;
44476;SDS011;30180;44.788;10.366;2023-10-08T02:39:19;21.00;;;13.90;;
44476;SDS011;30180;44.788;10.366;2023-10-08T02:41:53;18.05;;;14.10;;
44476;SDS011;30180;44.788;10.366;2023-10-08T02:44:25;16.50;;;12.93;;
44476;SDS011;30180;44.788;10.366;2023-10-08T02:46:54;19.13;;;14.38;;
44476;SDS011;30180;44.788;10.366;2023-10-08T02:49:22;20.67;;;14.93;;
44476;SDS011;30180;44.788;10.366;2023-10-08T02:51:51;17.55;;;13.85;;
44476;SDS011;30180;44.788;10.366;2023-10-08T02:54:22;19.55;;;15.18;;
44476;SDS011;30180;44.788;10.366;2023-10-08T02:56:59;19.27;;;14.13;;
44476;SDS011;30180;44.788;10.366;2023-10-08T02:59:31;19.40;;;14.50;;
44476;SDS011;30180;44.788;10.366;2023-10-08T03:02:06;18.48;;;14.38;;
44476;SDS011;30180;44.788;10.366;2023-10-08T03:04:41;18.75;;;14.60;;
44476;SDS011;30180;44.788;10.366;2023-10-08T03:07:12;16.30;;;12.95;;
44476;SDS011;30180;44.788;10.366;2023-10-08T03:09:48;19.30;;;13.85;;
44476;SDS011;30180;44.788;10.366;2023-10-08T03:12:18;17.02;;;13.35;;
44476;SDS011;30180;44.788;10.366;2023-10-08T03:14:51;19.52;;;14.90;;
44476;SDS011;30180;44.788;10.366;2023-10-08T03:17:39;20.13;;;14.13;;
44476;SDS011;30180;44.788;10.366;2023-10-08T03:20:15;19.23;;;14.27;;
44476;SDS011;30180;44.788;10.366;2023-10-08T03:23:05;15.80;;;12.63;;
44476;SDS011;30180;44.788;10.366;2023-10-08T03:25:40;18.00;;;13.90;;
44476;SDS011;30180;44.788;10.366;2023-10-08T03:28:10;18.38;;;13.73;;
44476;SDS011;30180;44.788;10.366;2023-10-08T03:33:16;22.40;;;15.35;;
44476;SDS011;30180;44.788;10.366;2023-10-08T03:35:50;21.10;;;15.55;;
44476;SDS011;30180;44.788;10.366;2023-10-08T03:38:21;16.50;;;12.90;;
44476;SDS011;30180;44.788;10.366;2023-10-08T03:41:05;18.88;;;13.55;;
44476;SDS011;30180;44.788;10.366;2023-10-08T03:43:37;18.75;;;13.57;;
44476;SDS011;30180;44.788;10.366;2023-10-08T03:46:13;16.85;;;12.93;;
44476;SDS011;30180;44.788;10.366;2023-10-08T03:48:47;17.48;;;12.40;;
44476;SDS011;30180;44.788;10.366;2023-10-08T03:51:17;18.92;;;14.02;;
44476;SDS011;30180;44.788;10.366;2023-10-08T03:53:47;17.93;;;13.63;;
44476;SDS011;30180;44.788;10.366;2023-10-08T03:56:32;15.88;;;12.32;;
44476;SDS011;30180;44.788;10.366;2023-10-08T04:01:40;16.95;;;12.82;;
44476;SDS011;30180;44.788;10.366;2023-10-08T04:04:10;16.43;;;12.90;;
44476;SDS011;30180;44.788;10.366;2023-10-08T04:09:15;16.52;;;13.10;;
44476;SDS011;30180;44.788;10.366;2023-10-08T04:11:50;18.10;;;13.32;;
44476;SDS011;30180;44.788;10.366;2023-10-08T04:14:26;16.33;;;13.00;;
44476;SDS011;30180;44.788;10.366;2023-10-08T04:16:56;14.73;;;12.30;;
44476;SDS011;30180;44.788;10.366;2023-10-08T04:19:25;17.65;;;13.65;;
44476;SDS011;30180;44.788;10.366;2023-10-08T04:21:54;15.90;;;12.80;;
44476;SDS011;30180;44.788;10.366;2023-10-08T04:24:23;16.98;;;13.45;;
44476;SDS011;30180;44.788;10.366;2023-10-08T04:26:55;17.20;;;13.07;;
44476;SDS011;30180;44.788;10.366;2023-10-08T04:29:24;17.23;;;13.35;;
44476;SDS011;30180;44.788;10.366;2023-10-08T04:31:59;17.45;;;14.25;;
44476;SDS011;30180;44.788;10.366;2023-10-08T04:34:35;18.80;;;14.60;;
44476;SDS011;30180;44.788;10.366;2023-10-08T04:37:04;18.30;;;13.85;;
44476;SDS011;30180;44.788;10.366;2023-10-08T04:39:39;16.02;;;12.55;;
44476;SDS011;30180;44.788;10.366;2023-10-08T04:42:14;15.85;;;12.65;;
44476;SDS011;30180;44.788;10.366;2023-10-08T04:44:54;19.35;;;14.13;;
44476;SDS011;30180;44.788;10.366;2023-10-08T04:47:24;17.05;;;13.30;;
44476;SDS011;30180;44.788;10.366;2023-10-08T04:49:59;18.30;;;13.55;;
44476;SDS011;30180;44.788;10.366;2023-10-08T04:52:31;17.75;;;13.15;;
44476;SDS011;30180;44.788;10.366;2023-10-08T04:55:01;18.08;;;13.60;;
44476;SDS011;30180;44.788;10.366;2023-10-08T04:57:39;15.65;;;11.77;;
44476;SDS011;30180;44.788;10.366;2023-10-08T05:00:11;16.65;;;12.52;;
44476;SDS011;30180;44.788;10.366;2023-10-08T05:02:42;14.98;;;11.93;;
44476;SDS011;30180;44.788;10.366;2023-10-08T05:05:17;19.50;;;13.63;;
44476;SDS011;30180;44.788;10.366;2023-10-08T05:08:05;17.00;;;12.50;;
44476;SDS011;30180;44.788;10.366;2023-10-08T05:10:55;16.67;;;13.30;;
44476;SDS011;30180;44.788;10.366;2023-10-08T05:13:41;16.75;;;12.40;;
44476;SDS011;30180;44.788;10.366;2023-10-08T05:16:33;15.07;;;11.50;;
44476;SDS011;30180;44.788;10.366;2023-10-08T05:19:10;19.25;;;13.48;;
44476;SDS011;30180;44.788;10.366;2023-10-08T05:22:15;16.67;;;12.80;;
44476;SDS011;30180;44.788;10.366;2023-10-08T05:25:09;17.15;;;12.90;;
44476;SDS011;30180;44.788;10.366;2023-10-08T05:27:52;17.08;;;13.00;;
44476;SDS011;30180;44.788;10.366;2023-10-08T05:30:25;14.93;;;11.98;;
44476;SDS011;30180;44.788;10.366;2023-10-08T05:32:57;19.85;;;14.05;;
44476;SDS011;30180;44.788;10.366;2023-10-08T05:35:39;19.40;;;14.18;;
44476;SDS011;30180;44.788;10.366;2023-10-08T05:38:21;14.98;;;11.98;;
44476;SDS011;30180;44.788;10.366;2023-10-08T05:41:04;17.10;;;12.48;;
44476;SDS011;30180;44.788;10.366;2023-10-08T05:43:54;17.50;;;12.93;;
44476;SDS011;30180;44.788;10.366;2023-10-08T05:46:39;18.08;;;13.63;;
44476;SDS011;30180;44.788;10.366;2023-10-08T05:49:34;20.73;;;13.15;;
44476;SDS011;30180;44.788;10.366;2023-10-08T05:52:21;22.15;;;14.38;;
44476;SDS011;30180;44.788;10.366;2023-10-08T05:55:17;17.42;;;12.95;;
44476;SDS011;30180;44.788;10.366;2023-10-08T05:57:52;20.33;;;15.20;;
44476;SDS011;30180;44.788;10.366;2023-10-08T06:00:39;19.52;;;13.43;;
44476;SDS011;30180;44.788;10.366;2023-10-08T06:03:31;20.63;;;15.10;;
44476;SDS011;30180;44.788;10.366;2023-10-08T06:06:05;18.38;;;13.20;;
44476;SDS011;30180;44.788;10.366;2023-10-08T06:08:49;19.55;;;14.65;;
44476;SDS011;30180;44.788;10.366;2023-10-08T06:11:47;18.15;;;14.25;;
44476;SDS011;30180;44.788;10.366;2023-10-08T06:14:37;17.70;;;13.70;;
44476;SDS011;30180;44.788;10.366;2023-10-08T06:17:34;19.75;;;13.45;;
44476;SDS011;30180;44.788;10.366;2023-10-08T06:20:17;16.33;;;12.98;;
44476;SDS011;30180;44.788;10.366;2023-10-08T06:22:53;19.77;;;14.85;;
44476;SDS011;30180;44.788;10.366;2023-10-08T06:25:28;18.13;;;13.80;;
44476;SDS011;30180;44.788;10.366;2023-10-08T06:27:56;17.67;;;13.90;;
44476;SDS011;30180;44.788;10.366;2023-10-08T06:30:25;17.45;;;14.32;;
44476;SDS011;30180;44.788;10.366;2023-10-08T06:32:56;16.15;;;13.13;;
44476;SDS011;30180;44.788;10.366;2023-10-08T06:35:27;17.52;;;13.45;;
44476;SDS011;30180;44.788;10.366;2023-10-08T06:37:57;16.23;;;11.75;;
44476;SDS011;30180;44.788;10.366;2023-10-08T06:40:27;20.13;;;13.75;;
44476;SDS011;30180;44.788;10.366;2023-10-08T06:43:07;21.10;;;13.02;;
44476;SDS011;30180;44.788;10.366;2023-10-08T06:45:48;17.90;;;12.82;;
44476;SDS011;30180;44.788;10.366;2023-10-08T06:48:20;19.35;;;13.00;;
44476;SDS011;30180;44.788;10.366;2023-10-08T06:53:25;20.23;;;14.02;;
44476;SDS011;30180;44.788;10.366;2023-10-08T06:55:56;19.67;;;14.10;;
44476;SDS011;30180;44.788;10.366;2023-10-08T06:58:30;24.38;;;14.02;;
44476;SDS011;30180;44.788;10.366;2023-10-08T07:00:59;24.70;;;14.23;;
44476;SDS011;30180;44.788;10.366;2023-10-08T07:03:31;21.42;;;14.60;;
44476;SDS011;30180;44.788;10.366;2023-10-08T07:06:01;18.70;;;12.93;;
44476;SDS011;30180;44.788;10.366;2023-10-08T07:08:44;26.33;;;13.20;;
44476;SDS011;30180;44.788;10.366;2023-10-08T07:11:21;21.40;;;13.10;;
44476;SDS011;30180;44.788;10.366;2023-10-08T07:13:50;29.58;;;13.18;;
44476;SDS011;30180;44.788;10.366;2023-10-08T07:16:18;20.83;;;13.52;;
44476;SDS011;30180;44.788;10.366;2023-10-08T07:18:47;24.10;;;13.32;;
44476;SDS011;30180;44.788;10.366;2023-10-08T07:21:18;16.98;;;11.70;;
44476;SDS011;30180;44.788;10.366;2023-10-08T07:23:51;17.67;;;12.07;;
44476;SDS011;30180;44.788;10.366;2023-10-08T07:26:27;17.73;;;12.65;;
44476;SDS011;30180;44.788;10.366;2023-10-08T07:29:03;14.75;;;11.77;;
44476;SDS011;30180;44.788;10.366;2023-10-08T07:31:35;14.85;;;11.55;;
44476;SDS011;30180;44.788;10.366;2023-10-08T07:34:04;22.23;;;11.90;;
44476;SDS011;30180;44.788;10.366;2023-10-08T07:36:45;14.80;;;11.23;;
44476;SDS011;30180;44.788;10.366;2023-10-08T07:39:17;17.70;;;11.57;;
44476;SDS011;30180;44.788;10.366;2023-10-08T07:42:01;16.40;;;11.95;;
44476;SDS011;30180;44.788;10.366;2023-10-08T07:44:32;15.95;;;11.95;;
44476;SDS011;30180;44.788;10.366;2023-10-08T07:49:36;13.40;;;10.35;;
44476;SDS011;30180;44.788;10.366;2023-10-08T07:52:05;17.80;;;12.38;;
44476;SDS011;30180;44.788;10.366;2023-10-08T07:54:35;15.13;;;11.63;;
44476;SDS011;30180;44.788;10.366;2023-10-08T07:57:03;14.20;;;11.07;;
44476;SDS011;30180;44.788;10.366;2023-10-08T07:59:38;15.10;;;11.07;;
44476;SDS011;30180;44.788;10.366;2023-10-08T08:02:08;13.52;;;10.95;;
44476;SDS011;30180;44.788;10.366;2023-10-08T08:04:38;18.05;;;11.95;;
44476;SDS011;30180;44.788;10.366;2023-10-08T08:07:07;15.30;;;10.55;;
44476;SDS011;30180;44.788;10.366;2023-10-08T08:09:44;14.95;;;11.63;;
44476;SDS011;30180;44.788;10.366;2023-10-08T08:12:18;18.90;;;12.38;;
44476;SDS011;30180;44.788;10.366;2023-10-08T08:14:48;18.92;;;11.80;;
44476;SDS011;30180;44.788;10.366;2023-10-08T08:17:18;17.20;;;11.80;;
44476;SDS011;30180;44.788;10.366;2023-10-08T08:19:49;16.55;;;11.73;;
44476;SDS011;30180;44.788;10.366;2023-10-08T08:22:19;17.90;;;12.35;;
44476;SDS011;30180;44.788;10.366;2023-10-08T08:24:51;22.25;;;12.57;;
44476;SDS011;30180;44.788;10.366;2023-10-08T08:27:24;17.73;;;12.15;;
44476;SDS011;30180;44.788;10.366;2023-10-08T08:29:59;17.55;;;12.40;;
44476;SDS011;30180;44.788;10.366;2023-10-08T08:32:37;23.58;;;12.32;;
44476;SDS011;30180;44.788;10.366;2023-10-08T08:35:07;17.98;;;11.63;;
44476;SDS011;30180;44.788;10.366;2023-10-08T08:37:36;16.60;;;11.40;;
44476;SDS011;30180;44.788;10.366;2023-10-08T08:40:08;17.42;;;11.70;;
44476;SDS011;30180;44.788;10.366;2023-10-08T08:42:44;17.42;;;11.20;;
44476;SDS011;30180;44.788;10.366;2023-10-08T08:45:14;14.40;;;10.13;;
44476;SDS011;30180;44.788;10.366;2023-10-08T08:47:47;15.77;;;10.30;;
44476;SDS011;30180;44.788;10.366;2023-10-08T08:50:16;14.00;;;10.48;;
44476;SDS011;30180;44.788;10.366;2023-10-08T08:52:46;14.67;;;10.30;;
44476;SDS011;30180;44.788;10.366;2023-10-08T08:55:16;15.45;;;11.18;;
44476;SDS011;30180;44.788;10.366;2023-10-08T08:57:47;16.67;;;11.75;;
44476;SDS011;30180;44.788;10.366;2023-10-08T09:00:18;18.38;;;10.85;;
44476;SDS011;30180;44.788;10.366;2023-10-08T09:02:47;14.73;;;10.90;;
44476;SDS011;30180;44.788;10.366;2023-10-08T09:05:17;15.13;;;11.38;;
44476;SDS011;30180;44.788;10.366;2023-10-08T09:07:56;17.48;;;11.23;;
44476;SDS011;30180;44.788;10.366;2023-10-08T09:10:26;17.08;;;12.05;;
44476;SDS011;30180;44.788;10.366;2023-10-08T09:12:56;15.90;;;11.40;;
44476;SDS011;30180;44.788;10.366;2023-10-08T09:17:54;15.57;;;11.15;;
44476;SDS011;30180;44.788;10.366;2023-10-08T09:20:27;14.77;;;11.50;;
44476;SDS011;30180;44.788;10.366;2023-10-08T09:23:05;14.00;;;10.77;;
44476;SDS011;30180;44.788;10.366;2023-10-08T09:25:40;16.25;;;11.25;;
44476;SDS011;30180;44.788;10.366;2023-10-08T09:28:10;15.45;;;11.55;;
44476;SDS011;30180;44.788;10.366;2023-10-08T09:30:40;15.95;;;11.70;;
44476;SDS011;30180;44.788;10.366;2023-10-08T09:33:12;14.40;;;10.38;;
44476;SDS011;30180;44.788;10.366;2023-10-08T09:35:41;15.13;;;11.55;;
44476;SDS011;30180;44.788;10.366;2023-10-08T09:38:10;14.32;;;11.10;;
44476;SDS011;30180;44.788;10.366;2023-10-08T09:40:40;14.90;;;11.43;;
44476;SDS011;30180;44.788;10.366;2023-10-08T09:43:12;17.75;;;11.40;;
44476;SDS011;30180;44.788;10.366;2023-10-08T09:45:45;13.85;;;10.43;;
44476;SDS011;30180;44.788;10.366;2023-10-08T09:48:16;15.57;;;11.57;;
44476;SDS011;30180;44.788;10.366;2023-10-08T09:50:48;15.45;;;11.02;;
44476;SDS011;30180;44.788;10.366;2023-10-08T09:53:21;16.25;;;11.90;;
44476;SDS011;30180;44.788;10.366;2023-10-08T09:55:56;17.77;;;11.05;;
44476;SDS011;30180;44.788;10.366;2023-10-08T09:58:25;16.47;;;12.17;;
44476;SDS011;30180;44.788;10.366;2023-10-08T10:00:56;16.35;;;11.38;;
44476;SDS011;30180;44.788;10.366;2023-10-08T10:03:25;15.48;;;11.25;;
44476;SDS011;30180;44.788;10.366;2023-10-08T10:05:54;16.02;;;11.80;;
44476;SDS011;30180;44.788;10.366;2023-10-08T10:08:28;14.98;;;11.25;;
44476;SDS011;30180;44.788;10.366;2023-10-08T10:11:04;14.18;;;10.63;;
44476;SDS011;30180;44.788;10.366;2023-10-08T10:13:34;14.73;;;11.48;;
44476;SDS011;30180;44.788;10.366;2023-10-08T10:16:09;15.45;;;11.30;;
44476;SDS011;30180;44.788;10.366;2023-10-08T10:18:43;14.52;;;11.23;;
44476;SDS011;30180;44.788;10.366;2023-10-08T10:21:29;13.68;;;10.73;;
44476;SDS011;30180;44.788;10.366;2023-10-08T10:23:59;14.43;;;10.80;;
44476;SDS011;30180;44.788;10.366;2023-10-08T10:26:34;14.35;;;11.02;;
44476;SDS011;30180;44.788;10.366;2023-10-08T10:29:22;14.88;;;10.43;;
44476;SDS011;30180;44.788;10.366;2023-10-08T10:31:53;16.17;;;10.68;;
44476;SDS011;30180;44.788;10.366;2023-10-08T10:34:23;13.13;;;10.80;;
44476;SDS011;30180;44.788;10.366;2023-10-08T10:39:25;15.23;;;11.07;;
44476;SDS011;30180;44.788;10.366;2023-10-08T10:41:56;16.03;;;9.70;;
44476;SDS011;30180;44.788;10.366;2023-10-08T10:44:28;14.23;;;10.68;;
44476;SDS011;30180;44.788;10.366;2023-10-08T10:46:58;17.13;;;11.02;;
44476;SDS011;30180;44.788;10.366;2023-10-08T10:49:45;14.70;;;10.80;;
44476;SDS011;30180;44.788;10.366;2023-10-08T10:52:20;13.95;;;10.30;;
44476;SDS011;30180;44.788;10.366;2023-10-08T10:55:11;15.02;;;11.07;;
44476;SDS011;30180;44.788;10.366;2023-10-08T10:57:51;16.15;;;11.15;;
44476;SDS011;30180;44.788;10.366;2023-10-08T11:00:23;13.50;;;10.00;;
44476;SDS011;30180;44.788;10.366;2023-10-08T11:03:10;12.95;;;10.90;;
44476;SDS011;30180;44.788;10.366;2023-10-08T11:05:45;12.70;;;9.90;;
44476;SDS011;30180;44.788;10.366;2023-10-08T11:08:18;15.30;;;10.60;;
44476;SDS011;30180;44.788;10.366;2023-10-08T11:10:50;15.15;;;11.68;;
44476;SDS011;30180;44.788;10.366;2023-10-08T11:13:21;16.35;;;11.45;;
44476;SDS011;30180;44.788;10.366;2023-10-08T11:15:55;14.88;;;11.40;;
44476;SDS011;30180;44.788;10.366;2023-10-08T11:18:26;20.73;;;11.27;;
44476;SDS011;30180;44.788;10.366;2023-10-08T11:21:05;27.40;;;11.98;;
44476;SDS011;30180;44.788;10.366;2023-10-08T11:23:44;21.48;;;12.02;;
44476;SDS011;30180;44.788;10.366;2023-10-08T11:26:22;20.65;;;12.30;;
44476;SDS011;30180;44.788;10.366;2023-10-08T11:29:01;15.65;;;11.45;;
44476;SDS011;30180;44.788;10.366;2023-10-08T11:31:31;19.08;;;11.32;;
44476;SDS011;30180;44.788;10.366;2023-10-08T11:34:02;13.48;;;10.73;;
44476;SDS011;30180;44.788;10.366;2023-10-08T11:36:36;14.45;;;10.95;;
44476;SDS011;30180;44.788;10.366;2023-10-08T11:39:16;17.03;;;12.07;;
44476;SDS011;30180;44.788;10.366;2023-10-08T11:41:55;18.08;;;11.07;;
44476;SDS011;30180;44.788;10.366;2023-10-08T11:44:33;14.85;;;11.10;;
44476;SDS011;30180;44.788;10.366;2023-10-08T11:47:04;17.10;;;11.35;;
44476;SDS011;30180;44.788;10.366;2023-10-08T11:49:40;18.58;;;11.32;;
44476;SDS011;30180;44.788;10.366;2023-10-08T11:52:14;13.77;;;11.00;;
44476;SDS011;30180;44.788;10.366;2023-10-08T11:54:43;18.20;;;11.32;;
44476;SDS011;30180;44.788;10.366;2023-10-08T11:57:14;14.50;;;10.65;;
44476;SDS011;30180;44.788;10.366;2023-10-08T11:59:50;17.15;;;11.25;;
44476;SDS011;30180;44.788;10.366;2023-10-08T12:02:21;18.17;;;10.55;;
44476;SDS011;30180;44.788;10.366;2023-10-08T12:04:50;16.60;;;11.20;;
44476;SDS011;30180;44.788;10.366;2023-10-08T12:07:19;14.65;;;10.50;;
44476;SDS011;30180;44.788;10.366;2023-10-08T12:09:49;16.58;;;10.38;;
44476;SDS011;30180;44.788;10.366;2023-10-08T12:12:20;14.27;;;9.93;;
44476;SDS011;30180;44.788;10.366;2023-10-08T12:14:51;15.35;;;10.82;;
44476;SDS011;30180;44.788;10.366;2023-10-08T12:17:21;14.07;;;10.32;;
44476;SDS011;30180;44.788;10.366;2023-10-08T12:20:04;18.13;;;11.18;;
44476;SDS011;30180;44.788;10.366;2023-10-08T12:22:50;14.88;;;10.90;;
44476;SDS011;30180;44.788;10.366;2023-10-08T12:25:19;16.20;;;10.60;;
44476;SDS011;30180;44.788;10.366;2023-10-08T12:27:47;18.85;;;11.13;;
44476;SDS011;30180;44.788;10.366;2023-10-08T12:30:17;15.55;;;10.85;;
44476;SDS011;30180;44.788;10.366;2023-10-08T12:32:45;15.85;;;11.00;;
44476;SDS011;30180;44.788;10.366;2023-10-08T12:35:13;21.10;;;10.65;;
44476;SDS011;30180;44.788;10.366;2023-10-08T12:37:42;17.08;;;10.55;;
44476;SDS011;30180;44.788;10.366;2023-10-08T12:40:11;20.88;;;10.68;;
44476;SDS011;30180;44.788;10.366;2023-10-08T12:42:50;16.02;;;10.93;;
44476;SDS011;30180;44.788;10.366;2023-10-08T12:45:20;14.43;;;9.60;;
44476;SDS011;30180;44.788;10.366;2023-10-08T12:47:48;16.35;;;10.23;;
44476;SDS011;30180;44.788;10.366;2023-10-08T12:50:17;15.07;;;10.57;;
44476;SDS011;30180;44.788;10.366;2023-10-08T12:52:56;19.67;;;9.95;;
44476;SDS011;30180;44.788;10.366;2023-10-08T12:55:30;18.40;;;10.55;;
44476;SDS011;30180;44.788;10.366;2023-10-08T12:58:06;18.02;;;9.20;;
44476;SDS011;30180;44.788;10.366;2023-10-08T13:00:38;18.17;;;9.85;;
44476;SDS011;30180;44.788;10.366;2023-10-08T13:03:08;16.25;;;9.82;;
44476;SDS011;30180;44.788;10.366;2023-10-08T13:05:42;13.82;;;9.00;;
44476;SDS011;30180;44.788;10.366;2023-10-08T13:08:11;18.58;;;9.50;;
44476;SDS011;30180;44.788;10.366;2023-10-08T13:10:40;16.48;;;9.57;;
44476;SDS011;30180;44.788;10.366;2023-10-08T13:13:11;13.20;;;8.95;;
44476;SDS011;30180;44.788;10.366;2023-10-08T13:15:41;13.90;;;9.43;;
44476;SDS011;30180;44.788;10.366;2023-10-08T13:18:09;15.77;;;9.13;;
44476;SDS011;30180;44.788;10.366;2023-10-08T13:20:38;18.65;;;9.48;;
44476;SDS011;30180;44.788;10.366;2023-10-08T13:23:08;13.32;;;9.35;;
44476;SDS011;30180;44.788;10.366;2023-10-08T13:25:37;13.75;;;8.90;;
44476;SDS011;30180;44.788;10.366;2023-10-08T13:28:06;17.50;;;8.90;;
44476;SDS011;30180;44.788;10.366;2023-10-08T13:30:38;14.25;;;9.38;;
44476;SDS011;30180;44.788;10.366;2023-10-08T13:33:08;13.23;;;9.13;;
44476;SDS011;30180;44.788;10.366;2023-10-08T13:35:36;13.17;;;9.30;;
44476;SDS011;30180;44.788;10.366;2023-10-08T13:38:05;17.63;;;8.60;;
44476;SDS011;30180;44.788;10.366;2023-10-08T13:40:40;19.75;;;9.35;;
44476;SDS011;30180;44.788;10.366;2023-10-08T13:43:28;16.58;;;8.98;;
44476;SDS011;30180;44.788;10.366;2023-10-08T13:46:01;14.35;;;9.32;;
44476;SDS011;30180;44.788;10.366;2023-10-08T13:48:34;16.23;;;9.32;;
44476;SDS011;30180;44.788;10.366;2023-10-08T13:51:03;16.52;;;9.40;;
44476;SDS011;30180;44.788;10.366;2023-10-08T13:53:37;12.02;;;8.45;;
44476;SDS011;30180;44.788;10.366;2023-10-08T13:56:06;15.35;;;9.20;;
44476;SDS011;30180;44.788;10.366;2023-10-08T13:58:38;13.15;;;7.97;;
44476;SDS011;30180;44.788;10.366;2023-10-08T14:01:12;15.90;;;9.73;;
44476;SDS011;30180;44.788;10.366;2023-10-08T14:03:49;12.40;;;8.23;;
44476;SDS011;30180;44.788;10.366;2023-10-08T14:06:20;17.25;;;8.40;;
44476;SDS011;30180;44.788;10.366;2023-10-08T14:08:49;12.77;;;8.65;;
44476;SDS011;30180;44.788;10.366;2023-10-08T14:11:19;14.60;;;7.90;;
44476;SDS011;30180;44.788;10.366;2023-10-08T14:13:50;15.23;;;8.63;;
44476;SDS011;30180;44.788;10.366;2023-10-08T14:16:19;13.57;;;7.65;;
44476;SDS011;30180;44.788;10.366;2023-10-08T14:18:52;15.55;;;8.38;;
44476;SDS011;30180;44.788;10.366;2023-10-08T14:21:21;15.55;;;8.70;;
44476;SDS011;30180;44.788;10.366;2023-10-08T14:23:51;14.93;;;8.18;;
44476;SDS011;30180;44.788;10.366;2023-10-08T14:26:19;14.60;;;8.55;;
44476;SDS011;30180;44.788;10.366;2023-10-08T14:28:49;16.80;;;8.27;;
44476;SDS011;30180;44.788;10.366;2023-10-08T14:31:24;13.35;;;8.13;;
44476;SDS011;30180;44.788;10.366;2023-10-08T14:33:54;19.48;;;8.88;;
44476;SDS011;30180;44.788;10.366;2023-10-08T14:36:31;14.20;;;8.07;;
44476;SDS011;30180;44.788;10.366;2023-10-08T14:39:17;15.80;;;9.00;;
44476;SDS011;30180;44.788;10.366;2023-10-08T14:42:03;15.38;;;7.97;;
44476;SDS011;30180;44.788;10.366;2023-10-08T14:44:50;12.75;;;7.93;;
44476;SDS011;30180;44.788;10.366;2023-10-08T14:47:18;14.23;;;8.02;;
44476;SDS011;30180;44.788;10.366;2023-10-08T14:49:48;13.55;;;7.55;;
44476;SDS011;30180;44.788;10.366;2023-10-08T14:52:17;17.02;;;8.10;;
44476;SDS011;30180;44.788;10.366;2023-10-08T14:54:46;14.10;;;7.78;;
44476;SDS011;30180;44.788;10.366;2023-10-08T14:57:14;13.95;;;7.75;;
44476;SDS011;30180;44.788;10.366;2023-10-08T14:59:45;13.65;;;8.00;;
44476;SDS011;30180;44.788;10.366;2023-10-08T15:02:13;16.70;;;8.20;;
44476;SDS011;30180;44.788;10.366;2023-10-08T15:04:41;14.07;;;8.55;;
44476;SDS011;30180;44.788;10.366;2023-10-08T15:07:12;12.75;;;7.90;;
44476;SDS011;30180;44.788;10.366;2023-10-08T15:09:44;13.85;;;7.43;;